Time;durP1;ratioP1;P1;durP2;ratioP2;P2;SDS_P1;SDS_P2;PMS_P1;PMS_P2;Temp;Humidity;BMP_temperature;BMP_pressure;BME280_temperature;BME280_humidity;BME280_pressure;Samples;Min_cycle;Max_cycle;Signal;HPM_P1;HPM_P2
2022/06/02 00:00:25;;;;;;;;;;;;;;;23.13;78.30;97115.64;589304;237;66149;-70
2022/06/02 00:02:58;;;;;;;;;;;;;;;23.13;78.26;97117.53;589253;237;63566;-68
2022/06/02 00:05:50;;;;;;;;;;;;;;;23.12;78.29;97119.41;589336;237;66129;-68
2022/06/02 00:08:16;;;;;;;;;;;;;;;23.11;78.32;97115.14;588987;237;68544;-68
2022/06/02 00:11:00;;;;;;;;;;;;;;;23.12;78.38;97127.45;589608;237;65381;-68
2022/06/02 00:13:29;;;;;;;;;;;;;;;23.12;78.32;97118.63;591989;236;68962;-70
2022/06/02 00:15:59;;;;;;;;;;;;;;;23.12;78.28;97122.09;589032;238;68558;-69
2022/06/02 00:18:29;;;;;;;;;;;;;;;23.12;78.27;97121.30;589147;238;66302;-69
2022/06/02 00:21:04;;;;;;;;;;;;;;;23.11;78.28;97120.51;589108;237;68683;-69
2022/06/02 00:23:34;;;;;;;;;;;;;;;23.11;78.22;97123.19;589636;237;68598;-69
2022/06/02 00:26:18;;;;;;;;;;;;;;;23.12;78.22;97118.63;589085;237;63019;-69
2022/06/02 00:28:56;;;;;;;;;;;;;;;23.12;78.24;97116.73;589182;237;68534;-69
2022/06/02 00:31:44;;;;;;;;;;;;;;;23.11;78.30;97109.78;589237;238;68555;-69
2022/06/02 00:34:19;;;;;;;;;;;;;;;23.12;78.26;97111.38;589491;237;65409;-69
2022/06/02 00:37:04;;;;;;;;;;;;;;;23.12;78.23;97102.53;593857;237;66443;-69
2022/06/02 00:39:33;;;;;;;;;;;;;;;23.11;78.22;97096.37;593855;237;66452;-69
2022/06/02 00:42:05;;;;;;;;;;;;;;;23.12;78.25;97099.86;593837;237;62908;-69
2022/06/02 00:44:34;;;;;;;;;;;;;;;23.11;78.24;97109.78;593805;237;66688;-69
2022/06/02 00:47:06;;;;;;;;;;;;;;;23.11;78.20;97104.42;593649;237;68825;-69
2022/06/02 00:49:38;;;;;;;;;;;;;;;23.11;78.24;97100.92;593641;237;65193;-69
2022/06/02 00:52:16;;;;;;;;;;;;;;;23.11;78.28;97101.74;593933;237;66437;-69
2022/06/02 00:57:44;;;;;;;;;;;;;;;23.11;78.21;97103.59;593921;237;64189;-69
2022/06/02 01:00:13;;;;;;;;;;;;;;;23.11;78.25;97098.23;593891;237;66250;-69
2022/06/02 01:02:45;;;;;;;;;;;;;;;23.10;78.32;97097.44;593828;237;68787;-69
2022/06/02 01:05:14;;;;;;;;;;;;;;;23.10;78.34;97097.44;593873;237;63206;-69
2022/06/02 01:07:59;;;;;;;;;;;;;;;23.10;78.32;97094.77;593833;237;66023;-69
2022/06/02 01:10:28;;;;;;;;;;;;;;;23.11;78.36;97096.37;593886;237;68345;-71
2022/06/02 01:12:57;;;;;;;;;;;;;;;23.09;78.35;97095.86;594015;237;63038;-71
2022/06/02 01:15:26;;;;;;;;;;;;;;;23.11;78.34;97104.42;594021;237;68368;-71
2022/06/02 01:17:59;;;;;;;;;;;;;;;23.09;78.34;97098.53;593908;237;68581;-71
2022/06/02 01:20:29;;;;;;;;;;;;;;;23.10;78.35;97092.08;593965;237;65359;-71
2022/06/02 01:23:05;;;;;;;;;;;;;;;23.10;78.35;97085.92;593872;237;68348;-71
2022/06/02 01:25:51;;;;;;;;;;;;;;;23.10;78.36;97080.56;593896;237;66473;-71
2022/06/02 01:28:35;;;;;;;;;;;;;;;23.10;78.37;97080.56;593893;237;63347;-70
2022/06/02 01:31:04;;;;;;;;;;;;;;;23.10;78.40;97081.36;593914;237;66803;-72
2022/06/02 01:33:39;;;;;;;;;;;;;;;23.10;78.40;97075.20;593956;237;66680;-70
2022/06/02 01:36:17;;;;;;;;;;;;;;;23.09;78.42;97069.05;589676;237;63368;-70
2022/06/02 01:38:46;;;;;;;;;;;;;;;23.09;78.35;97068.26;589018;238;68669;-71
2022/06/02 01:41:15;;;;;;;;;;;;;;;23.09;78.42;97074.41;589280;238;66491;-68
2022/06/02 01:44:00;;;;;;;;;;;;;;;23.09;78.35;97065.58;589144;237;63240;-68
2022/06/02 01:46:38;;;;;;;;;;;;;;;23.09;78.38;97069.05;592158;237;68786;-69
2022/06/02 01:49:23;;;;;;;;;;;;;;;23.09;78.36;97069.05;589899;237;68518;-70
2022/06/02 01:51:54;;;;;;;;;;;;;;;23.09;78.38;97081.66;593530;237;65354;-69
2022/06/02 01:54:23;;;;;;;;;;;;;;;23.08;78.38;97080.87;590481;237;68627;-68
2022/06/02 01:57:01;;;;;;;;;;;;;;;23.09;78.40;97077.09;591770;237;69749;-68
2022/06/02 01:59:34;;;;;;;;;;;;;;;23.09;78.49;97076.30;589835;237;63037;-70
2022/06/02 02:02:07;;;;;;;;;;;;;;;23.09;78.54;97076.30;589348;238;68802;-70
2022/06/02 02:04:38;;;;;;;;;;;;;;;23.09;78.59;97078.98;589303;239;66443;-70
2022/06/02 02:07:20;;;;;;;;;;;;;;;23.07;78.55;97073.89;589166;237;63038;-70
2022/06/02 02:10:07;;;;;;;;;;;;;;;23.08;78.52;97074.68;589257;238;68660;-70
2022/06/02 02:12:55;;;;;;;;;;;;;;;23.08;78.57;97075.50;589109;238;66243;-70
2022/06/02 02:15:27;;;;;;;;;;;;;;;23.08;78.59;97077.36;589170;238;63264;-70
2022/06/02 02:17:57;;;;;;;;;;;;;;;23.08;78.63;97075.50;589101;237;66511;-71
2022/06/02 02:20:29;;;;;;;;;;;;;;;23.08;78.60;97083.55;589972;237;66673;-71
2022/06/02 02:23:10;;;;;;;;;;;;;;;23.08;78.65;97088.08;589139;238;65902;-70
2022/06/02 02:25:51;;;;;;;;;;;;;;;23.08;78.63;97094.27;589216;238;68570;-71
2022/06/02 02:28:20;;;;;;;;;;;;;;;23.07;78.55;97086.50;589629;237;68724;-71
2022/06/02 02:30:58;;;;;;;;;;;;;;;23.07;78.59;97081.13;589692;237;65344;-70
2022/06/02 02:33:33;;;;;;;;;;;;;;;23.08;78.56;97090.77;589354;238;68635;-72
2022/06/02 02:36:11;;;;;;;;;;;;;;;23.06;78.61;97083.02;593218;237;67294;-70
2022/06/02 02:38:43;;;;;;;;;;;;;;;23.07;78.68;97087.29;593894;237;65597;-70
2022/06/02 02:41:12;;;;;;;;;;;;;;;23.08;78.69;97093.45;593922;237;68544;-68
2022/06/02 02:43:41;;;;;;;;;;;;;;;23.08;78.62;97094.27;594045;237;68751;-68
2022/06/02 02:46:16;;;;;;;;;;;;;;;23.07;78.64;97091.86;593987;237;64082;-68
2022/06/02 02:49:01;;;;;;;;;;;;;;;23.07;78.62;97086.50;593784;237;66917;-68
2022/06/02 02:51:30;;;;;;;;;;;;;;;23.07;78.65;97086.50;594097;237;67444;-68
2022/06/02 02:53:59;;;;;;;;;;;;;;;23.07;78.64;97087.29;593890;237;63121;-68
2022/06/02 02:56:29;;;;;;;;;;;;;;;23.06;78.70;97085.70;593828;237;66440;-68
2022/06/02 02:59:15;;;;;;;;;;;;;;;23.07;78.63;97089.17;593645;238;66583;-68
2022/06/02 03:01:50;;;;;;;;;;;;;;;23.07;78.62;97094.54;593926;239;65680;-68
2022/06/02 03:04:19;;;;;;;;;;;;;;;23.06;78.69;97093.74;593716;239;68855;-68
2022/06/02 03:06:54;;;;;;;;;;;;;;;23.05;78.71;97092.13;593851;238;66444;-68
2022/06/02 03:09:20;;;;;;;;;;;;;;;23.06;78.66;97091.06;593870;239;65250;-68
2022/06/02 03:11:52;;;;;;;;;;;;;;;23.06;78.66;97101.78;593902;239;66411;-70
2022/06/02 03:14:34;;;;;;;;;;;;;;;23.06;78.66;97095.63;593869;238;68660;-70
2022/06/02 03:17:03;;;;;;;;;;;;;;;23.07;78.68;97095.33;593751;239;65338;-68
2022/06/02 03:19:37;;;;;;;;;;;;;;;23.06;78.67;97099.10;593539;238;68936;-68
2022/06/02 03:22:18;;;;;;;;;;;;;;;23.07;78.64;97099.89;593742;239;68679;-68
2022/06/02 03:24:47;;;;;;;;;;;;;;;23.06;78.58;97100.98;593913;239;65406;-68
2022/06/02 03:27:16;;;;;;;;;;;;;;;23.05;78.64;97094.80;593853;238;68776;-68
2022/06/02 03:29:55;;;;;;;;;;;;;;;23.05;78.68;97100.17;593798;238;68516;-69
2022/06/02 03:32:36;;;;;;;;;;;;;;;23.05;78.68;97097.48;593872;239;65337;-69
2022/06/02 03:35:05;;;;;;;;;;;;;;;23.06;78.69;97093.74;592013;238;68704;-68
2022/06/02 03:37:39;;;;;;;;;;;;;;;23.06;78.71;97092.95;589395;238;66774;-68
2022/06/02 03:40:14;;;;;;;;;;;;;;;23.05;78.73;97105.53;589558;239;65456;-68
2022/06/02 03:42:46;;;;;;;;;;;;;;;23.04;78.69;97096.69;587568;237;66465;-69
2022/06/02 03:45:18;;;;;;;;;;;;;;;23.04;78.79;97094.02;589159;237;68624;-68
2022/06/02 03:47:53;;;;;;;;;;;;;;;23.06;78.79;97100.98;589135;237;65434;-68
2022/06/02 03:50:25;;;;;;;;;;;;;;;23.04;78.74;97099.38;589622;237;68938;-70
2022/06/02 03:52:54;;;;;;;;;;;;;;;23.05;78.72;97105.53;589327;237;66472;-68
2022/06/02 03:55:42;;;;;;;;;;;;;;;23.04;78.76;97104.73;588930;237;63170;-68
2022/06/02 03:58:11;;;;;;;;;;;;;;;23.05;78.74;97105.53;589079;238;68108;-68
2022/06/02 04:00:40;;;;;;;;;;;;;;;23.05;78.81;97100.17;588800;238;68606;-68
2022/06/02 04:03:09;;;;;;;;;;;;;;;23.04;78.79;97106.63;588559;237;62979;-68
2022/06/02 04:05:54;;;;;;;;;;;;;;;23.04;78.83;97107.41;589087;237;69061;-68
2022/06/02 04:08:34;;;;;;;;;;;;;;;23.03;78.75;97102.35;589122;238;68562;-70
2022/06/02 04:11:06;;;;;;;;;;;;;;;23.04;78.74;97110.09;589223;237;64446;-69
2022/06/02 04:13:51;;;;;;;;;;;;;;;23.04;78.77;97111.98;589290;237;69603;-69
2022/06/02 04:16:20;;;;;;;;;;;;;;;23.04;78.73;97109.30;589218;238;66470;-69
2022/06/02 04:18:52;;;;;;;;;;;;;;;23.04;78.78;97106.63;589173;237;65351;-69
2022/06/02 04:21:24;;;;;;;;;;;;;;;23.04;78.87;97114.66;589267;238;66478;-69
2022/06/02 04:23:56;;;;;;;;;;;;;;;23.03;78.90;97103.14;589273;238;66651;-69
2022/06/02 04:26:41;;;;;;;;;;;;;;;23.03;78.79;97102.35;590161;237;65240;-70
2022/06/02 04:29:19;;;;;;;;;;;;;;;23.03;78.82;97102.35;589500;237;68667;-68
2022/06/02 04:32:01;;;;;;;;;;;;;;;23.03;78.79;97107.72;589186;237;68668;-68
2022/06/02 04:34:32;;;;;;;;;;;;;;;23.03;78.85;97113.87;593337;236;65492;-70
2022/06/02 04:37:07;;;;;;;;;;;;;;;23.03;78.78;97105.03;595711;238;66420;-71
2022/06/02 04:39:36;;;;;;;;;;;;;;;23.02;78.75;97103.41;595909;238;68587;-71
2022/06/02 04:42:12;;;;;;;;;;;;;;;23.02;78.81;97106.89;589851;237;65160;-70
2022/06/02 04:44:41;;;;;;;;;;;;;;;23.03;78.80;97105.03;589287;237;66401;-71
2022/06/02 04:47:27;;;;;;;;;;;;;;;23.02;78.80;97100.73;589159;237;66210;-71
2022/06/02 04:49:56;;;;;;;;;;;;;;;23.03;78.82;97105.03;589169;237;65602;-71
2022/06/02 04:52:27;;;;;;;;;;;;;;;23.02;78.85;97103.41;592721;236;68659;-71
2022/06/02 04:55:05;;;;;;;;;;;;;;;23.01;78.88;97105.30;589195;238;66775;-72
2022/06/02 04:57:38;;;;;;;;;;;;;;;23.02;78.83;97108.77;594454;236;63955;-72
2022/06/02 05:00:09;;;;;;;;;;;;;;;23.01;78.82;97109.87;593482;237;68598;-72
2022/06/02 05:02:41;;;;;;;;;;;;;;;23.02;78.88;97106.89;589909;236;68585;-72
2022/06/02 05:05:23;;;;;;;;;;;;;;;23.02;78.81;97111.45;589075;237;65635;-72
2022/06/02 05:07:52;;;;;;;;;;;;;;;23.02;78.88;97114.14;589214;238;68603;-71
2022/06/02 05:10:21;;;;;;;;;;;;;;;23.01;78.93;97110.66;589051;238;68356;-72
2022/06/02 05:13:07;;;;;;;;;;;;;;;23.01;78.90;97107.98;589099;237;65130;-72
2022/06/02 05:15:52;;;;;;;;;;;;;;;23.01;78.81;97109.87;591809;236;68360;-71
2022/06/02 05:18:22;;;;;;;;;;;;;;;23.01;78.90;97115.23;589088;238;68350;-71
2022/06/02 05:20:51;;;;;;;;;;;;;;;23.01;78.88;97116.02;589188;237;65372;-71
2022/06/02 05:23:23;;;;;;;;;;;;;;;23.00;78.89;97111.75;589218;236;66440;-71
2022/06/02 05:25:52;;;;;;;;;;;;;;;23.01;78.89;97109.87;589339;238;68337;-71
2022/06/02 05:28:31;;;;;;;;;;;;;;;23.01;78.93;97107.19;588995;237;65437;-71
2022/06/02 05:31:15;;;;;;;;;;;;;;;23.01;79.00;97109.87;589256;237;66129;-71
2022/06/02 05:34:01;;;;;;;;;;;;;;;23.01;79.00;97115.23;588468;238;68462;-71
2022/06/02 05:36:33;;;;;;;;;;;;;;;23.00;79.01;97109.08;593472;236;65537;-71
2022/06/02 05:39:02;;;;;;;;;;;;;;;23.00;79.15;97110.96;597020;237;68647;-72
2022/06/02 05:41:47;;;;;;;;;;;;;;;23.01;79.11;97112.55;595394;237;65840;-71
2022/06/02 05:44:25;;;;;;;;;;;;;;;23.01;79.02;97112.55;589301;238;63260;-71
2022/06/02 05:46:57;;;;;;;;;;;;;;;23.00;79.07;97106.39;590198;236;66494;-71
2022/06/02 05:49:26;;;;;;;;;;;;;;;23.00;79.15;97110.96;589237;238;66435;-70
2022/06/02 05:51:55;;;;;;;;;;;;;;;23.00;79.14;97110.96;588836;238;65072;-71
2022/06/02 05:54:41;;;;;;;;;;;;;;;23.00;79.19;97108.28;591215;236;66408;-70
2022/06/02 05:57:13;;;;;;;;;;;;;;;23.00;79.22;97103.72;596975;237;66463;-71
2022/06/02 05:59:42;;;;;;;;;;;;;;;23.00;79.21;97105.59;588757;237;65379;-71
2022/06/02 06:02:17;;;;;;;;;;;;;;;22.99;79.24;97103.98;588357;237;68673;-70
2022/06/02 06:04:49;;;;;;;;;;;;;;;22.99;79.17;97095.94;589719;238;70232;-70
2022/06/02 06:07:37;;;;;;;;;;;;;;;22.99;79.16;97095.94;586705;236;63199;-74
2022/06/02 06:10:09;;;;;;;;;;;;;;;22.99;79.79;97101.30;589917;238;68685;-74
2022/06/02 06:12:55;;;;;;;;;;;;;;;22.97;80.89;97098.92;589597;237;66919;-72
2022/06/02 06:15:28;;;;;;;;;;;;;;;22.98;81.14;97099.71;600255;234;64665;-75
2022/06/02 06:18:13;;;;;;;;;;;;;;;22.98;79.37;97099.71;600542;234;69898;-74
2022/06/02 06:20:58;;;;;;;;;;;;;;;22.97;79.31;97093.56;600715;234;68816;-72
2022/06/02 06:23:44;;;;;;;;;;;;;;;23.00;80.11;97097.56;600665;235;64095;-74
2022/06/02 06:26:25;;;;;;;;;;;;;;;23.00;80.67;97098.35;600735;236;68840;-73
2022/06/02 06:29:11;;;;;;;;;;;;;;;23.00;80.65;97092.98;600501;232;68235;-72
2022/06/02 06:31:49;;;;;;;;;;;;;;;23.01;80.74;97101.83;600679;236;65480;-72
2022/06/02 06:34:34;;;;;;;;;;;;;;;23.00;80.90;97098.35;601035;232;68029;-72
2022/06/02 06:37:03;;;;;;;;;;;;;;;23.01;80.99;97101.83;603161;235;68457;-71
2022/06/02 06:39:41;;;;;;;;;;;;;;;23.01;80.99;97096.47;603262;235;63388;-72
2022/06/02 06:42:26;;;;;;;;;;;;;;;23.00;80.93;97095.67;603291;235;68792;-72
2022/06/02 06:45:03;;;;;;;;;;;;;;;23.01;80.97;97094.58;602963;233;68744;-77
2022/06/02 06:47:35;;;;;;;;;;;;;;;23.02;80.52;97101.53;603262;234;64803;-73
2022/06/02 06:50:19;;;;;;;;;;;;;;;23.02;80.64;97098.05;603183;235;68137;-73
2022/06/02 06:52:48;;;;;;;;;;;;;;;23.03;80.83;97096.98;603210;235;68500;-74
2022/06/02 06:55:20;;;;;;;;;;;;;;;23.02;80.94;97090.02;603115;235;65333;-74
2022/06/02 06:57:56;;;;;;;;;;;;;;;23.02;81.00;97092.69;602882;235;67304;-74
2022/06/02 07:00:25;;;;;;;;;;;;;;;23.04;81.09;97093.22;603185;235;66350;-74
2022/06/02 07:02:57;;;;;;;;;;;;;;;23.03;81.09;97087.06;603245;235;63192;-74
2022/06/02 07:05:36;;;;;;;;;;;;;;;23.02;81.08;97085.45;603135;234;66212;-74
2022/06/02 07:08:08;;;;;;;;;;;;;;;23.03;81.10;97091.63;603245;235;68456;-67
2022/06/02 07:10:40;;;;;;;;;;;;;;;23.04;81.04;97093.22;603343;235;65309;-66
2022/06/02 07:13:09;;;;;;;;;;;;;;;23.04;80.99;97093.22;603143;235;66152;-66
2022/06/02 07:15:45;;;;;;;;;;;;;;;23.04;81.00;97093.22;603310;235;68734;-66
2022/06/02 07:18:26;;;;;;;;;;;;;;;23.04;80.95;97090.54;603104;235;65273;-66
2022/06/02 07:21:04;;;;;;;;;;;;;;;23.04;81.00;97088.66;607729;232;66302;-69
2022/06/02 07:23:36;;;;;;;;;;;;;;;23.05;80.92;97102.84;603388;232;66221;-69
2022/06/02 07:26:14;;;;;;;;;;;;;;;23.04;80.93;97096.69;603232;235;65441;-69
2022/06/02 07:29:00;;;;;;;;;;;;;;;23.04;80.90;97094.02;603192;235;66938;-69
2022/06/02 07:31:32;;;;;;;;;;;;;;;23.05;80.95;97094.80;603226;235;66410;-67
2022/06/02 07:34:04;;;;;;;;;;;;;;;23.04;81.00;97094.02;603185;235;65142;-71
2022/06/02 07:36:48;;;;;;;;;;;;;;;23.05;80.94;97102.84;596353;235;66240;-66
2022/06/02 07:39:23;;;;;;;;;;;;;;;23.05;80.93;97108.20;596265;238;66569;-69
2022/06/02 07:41:52;;;;;;;;;;;;;;;23.04;80.95;97103.94;596320;238;63031;-69
2022/06/02 07:44:24;;;;;;;;;;;;;;;23.06;80.94;97096.42;596379;236;66136;-67
2022/06/02 07:46:54;;;;;;;;;;;;;;;23.04;80.88;97104.73;596188;238;66268;-68
2022/06/02 07:49:23;;;;;;;;;;;;;;;23.05;80.86;97094.80;596347;238;63262;-69
2022/06/02 07:52:08;;;;;;;;;;;;;;;23.06;80.81;97106.35;596295;236;68134;-66
2022/06/02 07:54:49;;;;;;;;;;;;;;;23.06;80.80;97092.95;596237;238;68461;-69
2022/06/02 07:57:27;;;;;;;;;;;;;;;23.06;80.82;97103.67;596317;237;65271;-68
2022/06/02 07:59:56;;;;;;;;;;;;;;;23.06;80.85;97101.78;596030;238;66411;-68
2022/06/02 08:02:34;;;;;;;;;;;;;;;23.07;80.89;97097.22;596349;238;68324;-68
2022/06/02 08:05:04;;;;;;;;;;;;;;;23.06;80.87;97106.35;596292;236;63431;-68
2022/06/02 08:07:48;;;;;;;;;;;;;;;23.06;80.87;97103.67;596200;237;66249;-68
2022/06/02 08:10:20;;;;;;;;;;;;;;;23.06;79.34;97103.67;596312;236;66281;-67
2022/06/02 08:12:57;;;;;;;;;;;;;;;23.07;79.84;97097.22;596364;238;65393;-68
2022/06/02 08:15:28;;;;;;;;;;;;;;;23.08;80.72;97090.77;595931;237;65877;-69
2022/06/02 08:17:57;;;;;;;;;;;;;;;23.07;80.20;97098.01;596253;236;67304;-69
2022/06/02 08:20:35;;;;;;;;;;;;;;;23.06;80.28;97099.10;595682;238;62991;-69
2022/06/02 08:23:05;;;;;;;;;;;;;;;23.06;80.04;97099.10;596129;238;66290;-69
2022/06/02 08:25:34;;;;;;;;;;;;;;;23.06;79.92;97099.10;596389;236;68310;-69
2022/06/02 08:28:15;;;;;;;;;;;;;;;23.06;79.80;97096.42;595894;238;65209;-69
2022/06/02 08:30:50;;;;;;;;;;;;;;;23.07;79.57;97097.22;596255;235;68342;-67
2022/06/02 08:33:31;;;;;;;;;;;;;;;23.09;79.62;97100.42;596411;238;68536;-69
2022/06/02 08:35:58;;;;;;;;;;;;;;;23.10;79.91;97093.97;595693;235;48555;-69
2022/06/02 08:38:33;;;;;;;;;;;;;;;23.08;79.84;97094.27;601174;235;66039;-69
2022/06/02 08:41:28;;;;;;;;;;;;;;;23.08;79.81;97096.13;601841;235;66774;-69
2022/06/02 08:43:33;;;;;;;;;;;;;;;23.07;79.96;97089.97;601146;235;65103;-69
2022/06/02 08:46:02;;;;;;;;;;;;;;;23.07;79.92;97095.33;601872;235;68339;-69
2022/06/02 08:48:34;;;;;;;;;;;;;;;23.07;79.85;97095.33;601938;235;68529;-68
2022/06/02 08:51:16;;;;;;;;;;;;;;;23.06;79.92;97085.70;601936;235;65491;-68
2022/06/02 08:53:45;;;;;;;;;;;;;;;23.07;79.87;97095.33;601788;235;68380;-67
2022/06/02 08:56:15;;;;;;;;;;;;;;;23.09;80.67;97097.74;601571;235;68290;-67
2022/06/02 08:59:00;;;;;;;;;;;;;;;23.09;79.67;97095.06;601882;235;62968;-67
2022/06/02 09:01:46;;;;;;;;;;;;;;;23.10;79.72;97096.65;601906;235;69323;-67
2022/06/02 09:04:27;;;;;;;;;;;;;;;23.10;79.89;97104.69;601949;235;68378;-67
2022/06/02 09:07:02;;;;;;;;;;;;;;;23.09;79.93;97101.22;601719;235;65519;-67
2022/06/02 09:09:32;;;;;;;;;;;;;;;23.09;80.01;97105.78;601867;235;68311;-67
2022/06/02 09:12:05;;;;;;;;;;;;;;;23.08;80.01;97099.63;601844;235;69104;-67
2022/06/02 09:14:40;;;;;;;;;;;;;;;23.08;80.05;97102.31;601858;235;65597;-67
2022/06/02 09:17:18;;;;;;;;;;;;;;;23.09;80.05;97106.58;601791;235;68776;-67
2022/06/02 09:19:56;;;;;;;;;;;;;;;23.08;80.16;97099.63;601891;235;66224;-75
2022/06/02 09:22:26;;;;;;;;;;;;;;;23.08;80.45;97109.53;600011;235;63940;-75
2022/06/02 09:25:11;;;;;;;;;;;;;;;23.09;80.71;97114.63;601978;235;68439;-75
2022/06/02 09:27:46;;;;;;;;;;;;;;;23.09;80.61;97106.58;601904;235;66532;-75
2022/06/02 09:30:18;;;;;;;;;;;;;;;23.08;80.70;97102.31;601921;235;65339;-77
2022/06/02 09:32:47;;;;;;;;;;;;;;;23.07;80.54;97107.94;601908;235;65878;-77
2022/06/02 09:35:31;;;;;;;;;;;;;;;23.09;77.74;97111.14;601276;235;65926;-77
2022/06/02 09:38:01;;;;;;;;;;;;;;;23.10;79.60;97105.48;600817;235;65337;-69
2022/06/02 09:40:30;;;;;;;;;;;;;;;23.09;79.80;97101.22;600767;236;68057;-67
2022/06/02 09:43:15;;;;;;;;;;;;;;;23.09;79.67;97101.22;600795;236;67988;-66
2022/06/02 09:45:47;;;;;;;;;;;;;;;23.10;79.64;97113.53;600860;236;65387;-68
2022/06/02 09:48:29;;;;;;;;;;;;;;;23.12;76.76;97113.26;600776;236;65854;-69
2022/06/02 09:51:07;;;;;;;;;;;;;;;23.12;76.70;97114.05;600808;236;68075;-70
2022/06/02 09:53:36;;;;;;;;;;;;;;;23.12;78.37;97108.69;602187;232;65376;-70
2022/06/02 09:56:21;;;;;;;;;;;;;;;23.12;79.11;97115.94;600764;235;68039;-72
2022/06/02 09:58:50;;;;;;;;;;;;;;;23.10;79.33;97108.16;600811;236;67995;-71
2022/06/02 10:01:28;;;;;;;;;;;;;;;23.10;79.39;97108.16;600540;236;63110;-71
2022/06/02 10:04:01;;;;;;;;;;;;;;;23.10;79.51;97102.80;603390;232;68380;-71
2022/06/02 10:06:45;;;;;;;;;;;;;;;23.10;79.48;97107.38;598209;235;66465;-71
2022/06/02 10:09:14;;;;;;;;;;;;;;;23.10;79.57;97113.53;606255;231;65426;-71
2022/06/02 10:11:44;;;;;;;;;;;;;;;23.10;79.63;97113.53;603378;234;68180;-70
2022/06/02 10:14:16;;;;;;;;;;;;;;;23.10;79.74;97107.38;602241;235;66387;-71
2022/06/02 10:16:57;;;;;;;;;;;;;;;23.11;79.81;97115.14;601027;234;65170;-70
2022/06/02 10:19:42;;;;;;;;;;;;;;;23.10;79.85;97105.48;600792;236;68092;-69
2022/06/02 10:22:19;;;;;;;;;;;;;;;23.10;79.91;97104.69;600773;236;68450;-70
2022/06/02 10:24:48;;;;;;;;;;;;;;;23.10;80.01;97091.29;600728;236;65408;-70
2022/06/02 10:27:33;;;;;;;;;;;;;;;23.11;80.06;97099.06;600731;236;68179;-70
2022/06/02 10:30:19;;;;;;;;;;;;;;;23.11;80.12;97100.92;600702;236;68382;-71
2022/06/02 10:33:04;;;;;;;;;;;;;;;23.10;80.05;97094.77;600715;236;65444;-69
2022/06/02 10:35:37;;;;;;;;;;;;;;;23.10;80.16;97096.65;600715;236;68678;-76
2022/06/02 10:38:12;;;;;;;;;;;;;;;23.11;80.18;97095.55;600721;236;68295;-73
2022/06/02 10:40:50;;;;;;;;;;;;;;;23.11;80.22;97101.74;599420;236;63025;-69
2022/06/02 10:43:36;;;;;;;;;;;;;;;23.11;80.21;97099.06;589096;240;68924;-68
2022/06/02 10:46:05;;;;;;;;;;;;;;;23.11;80.32;97088.34;589001;237;69240;-70
2022/06/02 10:48:44;;;;;;;;;;;;;;;23.11;80.40;97088.34;589139;237;65545;-71
2022/06/02 10:51:13;;;;;;;;;;;;;;;23.11;80.41;97088.34;589204;237;66157;-70
2022/06/02 10:53:48;;;;;;;;;;;;;;;23.11;80.38;97082.98;589313;237;66558;-70
2022/06/02 10:56:18;;;;;;;;;;;;;;;23.11;80.34;97085.66;589192;238;65302;-69
2022/06/02 10:58:57;;;;;;;;;;;;;;;23.12;80.37;97089.92;588881;238;68704;-72
2022/06/02 11:01:26;;;;;;;;;;;;;;;23.12;80.36;97081.09;590279;237;68656;-74
2022/06/02 11:04:13;;;;;;;;;;;;;;;23.12;80.40;97086.45;589510;238;65389;-74
2022/06/02 11:06:58;;;;;;;;;;;;;;;23.12;80.39;97083.77;589376;238;68667;-74
2022/06/02 11:09:44;;;;;;;;;;;;;;;23.12;80.35;97084.56;589539;238;68525;-73
2022/06/02 11:12:16;;;;;;;;;;;;;;;23.13;80.39;97082.67;589423;238;63314;-73
2022/06/02 11:14:48;;;;;;;;;;;;;;;23.12;80.32;97083.77;589271;238;68659;-74
2022/06/02 11:17:35;;;;;;;;;;;;;;;23.12;80.40;97079.20;589424;238;68266;-73
2022/06/02 11:20:13;;;;;;;;;;;;;;;23.13;80.45;97080.00;589497;238;63900;-73
2022/06/02 11:22:54;;;;;;;;;;;;;;;23.13;80.46;97072.75;589318;238;66523;-73
2022/06/02 11:25:42;;;;;;;;;;;;;;;23.12;80.50;97071.16;589290;238;69775;-73
2022/06/02 11:28:20;;;;;;;;;;;;;;;23.12;80.48;97073.05;589343;238;63281;-75
2022/06/02 11:31:00;;;;;;;;;;;;;;;23.12;80.53;97068.48;589277;238;47580;-74
2022/06/02 11:33:31;;;;;;;;;;;;;;;23.12;80.52;97071.16;589443;238;68593;-73
2022/06/02 11:36:16;;;;;;;;;;;;;;;23.11;80.41;97069.58;591423;238;64341;-73
2022/06/02 11:39:03;;;;;;;;;;;;;;;23.11;80.55;97069.58;592231;238;68725;-73
2022/06/02 11:41:32;;;;;;;;;;;;;;;23.12;80.58;97068.48;592238;238;66387;-73
2022/06/02 11:44:01;;;;;;;;;;;;;;;23.12;80.51;97059.64;592178;239;63321;-73
2022/06/02 11:46:36;;;;;;;;;;;;;;;23.12;80.40;97063.12;592190;239;66118;-73
2022/06/02 11:49:21;;;;;;;;;;;;;;;23.16;79.78;97068.70;592152;239;66450;-72
2022/06/02 11:52:07;;;;;;;;;;;;;;;23.18;79.88;97063.87;592105;239;65400;-73
2022/06/02 11:54:48;;;;;;;;;;;;;;;23.19;79.71;97062.77;592428;238;66380;-74
2022/06/02 11:57:30;;;;;;;;;;;;;;;23.18;79.29;97056.62;586628;239;65198;-78
2022/06/02 11:59:59;;;;;;;;;;;;;;;23.19;78.91;97052.88;587138;239;63304;-72
2022/06/02 12:02:38;;;;;;;;;;;;;;;23.20;78.56;97054.45;592084;239;68599;-74
2022/06/02 12:05:11;;;;;;;;;;;;;;;23.21;78.29;97052.57;592084;239;66413;-73
2022/06/02 12:07:41;;;;;;;;;;;;;;;23.21;78.02;97050.69;592100;239;63240;-74
2022/06/02 12:10:10;;;;;;;;;;;;;;;23.22;77.84;97054.98;592151;239;68993;-76
2022/06/02 12:12:41;;;;;;;;;;;;;;;23.24;77.66;97052.00;592112;239;68774;-76
2022/06/02 12:15:28;;;;;;;;;;;;;;;23.23;77.48;97040.48;592205;239;65367;-76
2022/06/02 12:17:57;;;;;;;;;;;;;;;23.26;74.74;97033.75;592180;239;69014;-79
2022/06/02 12:20:42;;;;;;;;;;;;;;;23.25;77.98;97030.28;592143;236;68640;-75
2022/06/02 12:23:18;;;;;;;;;;;;;;;23.22;78.45;97030.85;592161;239;65225;-75
2022/06/02 12:25:50;;;;;;;;;;;;;;;23.19;78.49;97036.78;592049;239;66439;-74
2022/06/02 12:28:19;;;;;;;;;;;;;;;23.17;78.26;97028.22;592131;239;66471;-74
2022/06/02 12:31:00;;;;;;;;;;;;;;;23.17;78.13;97027.42;592001;239;63018;-74
2022/06/02 12:33:41;;;;;;;;;;;;;;;23.16;78.00;97021.27;592121;239;67202;-73
2022/06/02 12:36:19;;;;;;;;;;;;;;;23.16;78.24;97025.81;596475;236;68093;-75
2022/06/02 12:39:05;;;;;;;;;;;;;;;23.17;75.82;97027.42;597134;237;64314;-75
2022/06/02 12:41:34;;;;;;;;;;;;;;;23.16;75.11;97026.63;596442;237;68807;-75
2022/06/02 12:44:04;;;;;;;;;;;;;;;23.18;77.54;97027.13;597155;237;69713;-74
2022/06/02 12:46:48;;;;;;;;;;;;;;;23.16;77.45;97020.45;596965;237;63312;-74
2022/06/02 12:49:20;;;;;;;;;;;;;;;23.15;77.94;97025.02;596828;237;69841;-75
2022/06/02 12:51:49;;;;;;;;;;;;;;;23.16;78.15;97015.09;594781;238;66634;-75
2022/06/02 12:54:18;;;;;;;;;;;;;;;23.16;78.30;97018.59;593818;238;63045;-74
2022/06/02 12:56:51;;;;;;;;;;;;;;;23.15;78.45;97011.61;594784;238;68670;-75
2022/06/02 12:59:38;;;;;;;;;;;;;;;23.15;78.36;97008.94;594743;238;66498;-75
2022/06/02 13:02:16;;;;;;;;;;;;;;;23.15;78.46;97010.82;594728;238;64283;-76
2022/06/02 13:04:45;;;;;;;;;;;;;;;23.15;78.55;97013.50;594806;238;68349;-73
2022/06/02 13:07:26;;;;;;;;;;;;;;;23.15;78.57;97018.86;594673;238;68557;-73
2022/06/02 13:10:04;;;;;;;;;;;;;;;23.15;78.72;97016.19;594423;238;63285;-75
2022/06/02 13:12:40;;;;;;;;;;;;;;;23.16;78.65;97015.91;593879;238;68837;-76
2022/06/02 13:15:18;;;;;;;;;;;;;;;23.15;78.90;97003.57;597376;236;68778;-75
2022/06/02 13:18:06;;;;;;;;;;;;;;;23.16;78.74;97010.55;600139;236;63049;-67
2022/06/02 13:20:51;;;;;;;;;;;;;;;23.15;78.69;97006.25;598300;236;68663;-67
2022/06/02 13:23:27;;;;;;;;;;;;;;;23.16;78.66;97007.05;585949;237;71753;-67
2022/06/02 13:26:02;;;;;;;;;;;;;;;23.15;78.89;97006.25;598427;237;63223;-67
2022/06/02 13:28:34;;;;;;;;;;;;;;;23.15;78.79;97003.57;598499;237;68659;-67
2022/06/02 13:31:03;;;;;;;;;;;;;;;23.15;78.75;97008.94;598527;237;66355;-68
2022/06/02 13:33:32;;;;;;;;;;;;;;;23.16;78.77;97002.51;598609;237;65411;-69